createdAt,value
2017-08-10T00:00:01.744Z,101089.22
2017-08-10T00:02:28.092Z,101096.41
2017-08-10T00:04:54.467Z,101094.73
2017-08-10T00:07:20.863Z,101109.00
2017-08-10T00:09:47.267Z,101109.77
2017-08-10T00:12:13.641Z,101118.00
2017-08-10T00:14:40.038Z,101116.83
2017-08-10T00:17:06.455Z,101109.77
2017-08-10T00:19:32.830Z,101100.85
2017-08-10T00:21:59.264Z,101101.22
2017-08-10T00:24:25.634Z,101093.64
2017-08-10T00:26:52.004Z,101079.91
2017-08-10T00:29:18.346Z,101073.73
2017-08-10T00:31:44.720Z,101069.30
2017-08-10T00:34:11.174Z,101072.88
2017-08-10T00:36:37.532Z,101081.45
2017-08-10T00:39:03.948Z,101083.45
2017-08-10T00:41:30.312Z,101092.49
2017-08-10T00:43:56.634Z,101086.23
2017-08-10T00:46:22.969Z,101086.91
2017-08-10T00:48:49.333Z,101080.53
2017-08-10T00:51:15.731Z,101084.02
2017-08-10T00:53:42.076Z,101091.29
2017-08-10T00:56:08.435Z,101091.73
2017-08-10T00:58:34.823Z,101087.50
2017-08-10T01:01:01.197Z,101082.58
2017-08-10T01:03:27.558Z,101082.27
2017-08-10T01:05:53.886Z,101084.58
2017-08-10T01:08:20.230Z,101092.68
2017-08-10T01:10:46.611Z,101083.92
2017-08-10T01:13:12.990Z,101075.88
2017-08-10T01:15:39.346Z,101075.73
2017-08-10T01:18:05.720Z,101066.94
2017-08-10T01:20:32.087Z,101072.08
2017-08-10T01:22:58.448Z,101059.77
2017-08-10T01:25:24.832Z,101055.17
2017-08-10T01:27:51.192Z,101059.30
2017-08-10T01:30:17.588Z,101067.34
2017-08-10T01:32:43.926Z,101078.11
2017-08-10T01:35:10.293Z,101086.94
2017-08-10T01:37:36.660Z,101085.13
2017-08-10T01:40:03.092Z,101088.11
2017-08-10T01:42:29.487Z,101093.95
2017-08-10T01:44:55.875Z,101099.20
2017-08-10T01:47:22.268Z,101101.19
2017-08-10T01:49:48.651Z,101097.78
2017-08-10T01:52:15.023Z,101092.91
2017-08-10T01:54:41.388Z,101093.59
2017-08-10T01:57:07.764Z,101091.63
2017-08-10T01:59:34.135Z,101100.83
2017-08-10T02:02:00.562Z,101099.05
2017-08-10T02:04:26.976Z,101101.72
2017-08-10T02:06:53.294Z,101098.88
2017-08-10T02:09:19.645Z,101111.61
2017-08-10T02:11:46.037Z,101116.95
2017-08-10T02:14:12.435Z,101109.10
2017-08-10T02:16:38.776Z,101110.73
2017-08-10T02:19:05.127Z,101109.48
2017-08-10T02:21:31.481Z,101107.23
2017-08-10T02:23:57.810Z,101097.74
2017-08-10T02:26:24.167Z,101091.40
2017-08-10T02:28:50.528Z,101095.59
2017-08-10T02:31:16.902Z,101092.26
2017-08-10T02:33:43.283Z,101096.02
2017-08-10T02:36:09.645Z,101101.75
2017-08-10T02:38:36.108Z,101099.69
2017-08-10T02:41:02.462Z,101107.41
2017-08-10T02:43:29.201Z,101105.82
2017-08-10T02:45:55.581Z,101106.12
2017-08-10T02:48:21.933Z,101107.09
2017-08-10T02:50:48.291Z,101115.31
2017-08-10T02:53:14.696Z,101119.06
2017-08-10T02:55:41.055Z,101127.49
2017-08-10T02:58:07.690Z,101135.35
2017-08-10T03:00:34.044Z,101132.98
2017-08-10T03:03:00.435Z,101134.06
2017-08-10T03:05:26.811Z,101148.48
2017-08-10T03:07:53.177Z,101161.44
2017-08-10T03:10:19.546Z,101168.22
2017-08-10T03:12:45.932Z,101180.96
2017-08-10T03:15:12.284Z,101180.30
2017-08-10T03:17:38.634Z,101171.89
2017-08-10T03:20:04.982Z,101172.06
2017-08-10T03:22:31.412Z,101169.03
2017-08-10T03:24:57.771Z,101170.30
2017-08-10T03:27:24.121Z,101168.58
2017-08-10T03:29:50.484Z,101157.25
2017-08-10T03:32:16.831Z,101154.84
2017-08-10T03:34:43.176Z,101150.66
2017-08-10T03:37:09.567Z,101153.09
2017-08-10T03:39:36.275Z,101159.02
2017-08-10T03:42:02.624Z,101158.52
2017-08-10T03:44:29.017Z,101155.58
2017-08-10T03:46:55.390Z,101160.69
2017-08-10T03:49:21.748Z,101158.73
2017-08-10T03:51:48.095Z,101160.70
2017-08-10T03:54:14.455Z,101161.83
2017-08-10T03:56:40.835Z,101160.66
2017-08-10T03:59:07.169Z,101165.32
2017-08-10T04:01:33.573Z,101165.03
2017-08-10T04:03:59.933Z,101151.52
2017-08-10T04:06:26.588Z,101149.88
2017-08-10T04:08:52.988Z,101147.14
2017-08-10T04:11:19.334Z,101159.49
2017-08-10T04:13:45.729Z,101159.68
2017-08-10T04:16:12.096Z,101157.62
2017-08-10T04:18:38.801Z,101152.78
2017-08-10T04:21:05.143Z,101160.44
2017-08-10T04:23:31.611Z,101164.10
2017-08-10T04:25:57.948Z,101166.95
2017-08-10T04:28:24.306Z,101170.78
2017-08-10T04:30:50.680Z,101170.73
2017-08-10T04:33:17.098Z,101167.98
2017-08-10T04:35:43.440Z,101168.17
2017-08-10T04:38:09.774Z,101163.45
2017-08-10T04:40:36.113Z,101161.69
2017-08-10T04:43:02.471Z,101172.87
2017-08-10T04:45:28.863Z,101165.27
2017-08-10T04:47:55.225Z,101164.05
2017-08-10T04:50:21.615Z,101167.47
2017-08-10T04:52:47.975Z,101159.19
2017-08-10T04:55:14.346Z,101162.51
2017-08-10T04:57:40.691Z,101159.44
2017-08-10T05:00:07.036Z,101155.59
2017-08-10T05:02:33.393Z,101156.94
2017-08-10T05:04:59.726Z,101155.05
2017-08-10T05:07:26.112Z,101147.88
2017-08-10T05:09:52.477Z,101144.45
2017-08-10T05:12:18.805Z,101143.12
2017-08-10T05:14:45.180Z,101145.84
2017-08-10T05:17:11.591Z,101143.67
2017-08-10T05:19:39.977Z,101141.81
2017-08-10T05:22:06.358Z,101147.78
2017-08-10T05:24:32.743Z,101152.36
2017-08-10T05:26:59.096Z,101148.34
2017-08-10T05:29:25.471Z,101143.17
2017-08-10T05:31:52.774Z,101142.09
2017-08-10T05:34:19.158Z,101134.62
2017-08-10T05:36:45.539Z,101134.11
2017-08-10T05:39:11.919Z,101132.84
2017-08-10T05:41:39.508Z,101144.81
2017-08-10T05:44:06.132Z,101139.45
2017-08-10T05:46:32.485Z,101130.77
2017-08-10T05:48:58.837Z,101127.23
2017-08-10T05:51:25.273Z,101136.69
2017-08-10T05:53:51.629Z,101135.22
2017-08-10T05:56:18.008Z,101129.48
2017-08-10T05:58:44.383Z,101137.72
2017-08-10T06:01:10.720Z,101141.41
2017-08-10T06:03:37.077Z,101147.44
2017-08-10T06:06:03.434Z,101144.34
2017-08-10T06:08:29.780Z,101148.91
2017-08-10T06:10:56.146Z,101149.14
2017-08-10T06:13:22.573Z,101153.16
2017-08-10T06:15:48.913Z,101158.80
2017-08-10T06:18:15.285Z,101173.57
2017-08-10T06:20:41.640Z,101185.20
2017-08-10T06:23:07.989Z,101185.11
2017-08-10T06:25:34.410Z,101192.92
2017-08-10T06:28:00.780Z,101204.89
2017-08-10T06:30:27.149Z,101211.12
2017-08-10T06:32:53.511Z,101218.84
2017-08-10T06:35:19.859Z,101215.48
2017-08-10T06:37:46.255Z,101224.33
2017-08-10T06:40:12.631Z,101225.59
2017-08-10T06:42:39.009Z,101231.03
2017-08-10T06:45:05.392Z,101227.34
2017-08-10T06:47:31.865Z,101220.79
2017-08-10T06:49:59.678Z,101217.08
2017-08-10T06:52:26.036Z,101204.77
2017-08-10T06:54:52.398Z,101208.00
2017-08-10T06:57:18.766Z,101209.17
2017-08-10T06:59:45.133Z,101221.35
2017-08-10T07:02:11.521Z,101232.50
2017-08-10T07:04:37.910Z,101236.31
2017-08-10T07:07:04.307Z,101240.45
2017-08-10T07:09:30.671Z,101238.89
2017-08-10T07:11:57.060Z,101238.25
2017-08-10T07:14:23.431Z,101237.17
2017-08-10T07:16:49.828Z,101248.61
2017-08-10T07:19:16.207Z,101261.41
2017-08-10T07:21:42.568Z,101249.01
2017-08-10T07:24:08.959Z,101249.31
2017-08-10T07:26:35.310Z,101245.17
2017-08-10T07:29:01.673Z,101240.46
2017-08-10T07:31:28.053Z,101240.97
2017-08-10T07:33:54.394Z,101239.68
2017-08-10T07:36:20.786Z,101239.30
2017-08-10T07:38:47.141Z,101241.27
2017-08-10T07:41:13.500Z,101245.34
2017-08-10T07:43:40.194Z,101244.00
2017-08-10T07:46:06.565Z,101233.54
2017-08-10T07:48:32.931Z,101231.64
2017-08-10T07:50:59.314Z,101227.58
2017-08-10T07:53:25.675Z,101230.73
2017-08-10T07:55:52.106Z,101232.68
2017-08-10T07:58:18.456Z,101241.62
2017-08-10T08:00:44.811Z,101244.66
2017-08-10T08:03:11.169Z,101249.48
2017-08-10T08:05:37.562Z,101240.55
2017-08-10T08:08:03.894Z,101240.89
2017-08-10T08:10:30.258Z,101239.20
2017-08-10T08:12:56.638Z,101242.84
2017-08-10T08:15:23.019Z,101250.83
2017-08-10T08:17:49.367Z,101245.91
2017-08-10T08:20:15.702Z,101252.22
2017-08-10T08:22:42.062Z,101255.20
2017-08-10T08:25:08.449Z,101254.42
2017-08-10T08:27:34.821Z,101243.14
2017-08-10T08:30:01.146Z,101236.53
2017-08-10T08:32:27.525Z,101236.14
2017-08-10T08:34:53.914Z,101244.72
2017-08-10T08:37:20.319Z,101249.09
2017-08-10T08:39:46.709Z,101249.39
2017-08-10T08:42:13.070Z,101241.75
2017-08-10T08:44:39.439Z,101239.72
2017-08-10T08:47:05.772Z,101241.92
2017-08-10T08:49:32.145Z,101243.86
2017-08-10T08:51:58.492Z,101247.45
2017-08-10T08:54:24.854Z,101235.39
2017-08-10T08:56:51.237Z,101235.94
2017-08-10T08:59:17.608Z,101234.78
2017-08-10T09:01:44.036Z,101249.69
2017-08-10T09:04:10.424Z,101254.19
2017-08-10T09:06:36.797Z,101275.53
2017-08-10T09:09:03.276Z,101271.95
2017-08-10T09:11:29.666Z,101281.73
2017-08-10T09:13:56.019Z,101287.78
2017-08-10T09:16:22.392Z,101298.80
2017-08-10T09:18:48.730Z,101296.77
2017-08-10T09:21:15.089Z,101294.91
2017-08-10T09:23:41.454Z,101286.36
2017-08-10T09:26:07.832Z,101278.88
2017-08-10T09:28:34.231Z,101269.75
2017-08-10T09:31:00.596Z,101268.20
2017-08-10T09:33:26.965Z,101264.70
2017-08-10T09:35:53.304Z,101272.86
2017-08-10T09:38:19.678Z,101278.75
2017-08-10T09:40:46.057Z,101280.04
2017-08-10T09:43:12.422Z,101272.43
2017-08-10T09:45:38.809Z,101273.77
2017-08-10T09:48:05.267Z,101273.39
2017-08-10T09:50:31.674Z,101271.52
2017-08-10T09:52:58.132Z,101260.59
2017-08-10T09:55:24.565Z,101258.52
2017-08-10T09:57:50.941Z,101254.75
2017-08-10T10:00:17.335Z,101256.52
2017-08-10T10:02:43.980Z,101264.00
2017-08-10T10:05:10.332Z,101268.93
2017-08-10T10:07:36.682Z,101273.69
2017-08-10T10:10:03.118Z,101274.84
2017-08-10T10:12:29.487Z,101273.28
2017-08-10T10:14:55.874Z,101276.88
2017-08-10T10:17:22.246Z,101268.57
2017-08-10T10:19:48.637Z,101264.73
2017-08-10T10:22:14.991Z,101247.56
2017-08-10T10:24:41.358Z,101252.20
2017-08-10T10:27:07.712Z,101263.90
2017-08-10T10:29:34.076Z,101269.17
2017-08-10T10:32:00.469Z,101270.03
2017-08-10T10:34:26.817Z,101271.62
2017-08-10T10:36:53.189Z,101284.83
2017-08-10T10:39:19.563Z,101286.35
2017-08-10T10:41:45.953Z,101282.97
2017-08-10T10:44:12.329Z,101278.44
2017-08-10T10:46:38.732Z,101278.44
2017-08-10T10:49:05.141Z,101280.34
2017-08-10T10:51:31.494Z,101275.75
2017-08-10T10:53:57.887Z,101278.25
2017-08-10T10:56:24.311Z,101276.86
2017-08-10T10:58:50.703Z,101288.19
2017-08-10T11:01:17.105Z,101289.88
2017-08-10T11:03:43.497Z,101283.91
2017-08-10T11:06:09.875Z,101292.64
2017-08-10T11:08:36.237Z,101295.38
2017-08-10T11:11:02.621Z,101291.83
2017-08-10T11:13:29.015Z,101288.54
2017-08-10T11:15:55.401Z,101297.00
2017-08-10T11:18:21.761Z,101301.20
2017-08-10T11:20:48.130Z,101305.23
2017-08-10T11:23:14.529Z,101307.02
2017-08-10T11:25:40.881Z,101304.64
2017-08-10T11:28:07.260Z,101298.48
2017-08-10T11:30:33.695Z,101296.84
2017-08-10T11:33:00.063Z,101298.48
2017-08-10T11:35:26.426Z,101303.23
2017-08-10T11:37:52.809Z,101308.91
2017-08-10T11:40:19.202Z,101308.44
2017-08-10T11:42:45.600Z,101298.23
2017-08-10T11:45:11.956Z,101301.82
2017-08-10T11:47:38.337Z,101301.82
2017-08-10T11:50:04.720Z,101297.41
2017-08-10T11:52:31.090Z,101296.06
2017-08-10T11:54:57.480Z,101295.34
2017-08-10T11:57:23.853Z,101295.38
2017-08-10T11:59:50.216Z,101291.72
2017-08-10T12:02:16.620Z,101297.59
2017-08-10T12:04:45.826Z,101299.23
2017-08-10T12:07:12.202Z,101302.21
2017-08-10T12:09:38.593Z,101301.61
2017-08-10T12:12:04.962Z,101300.48
2017-08-10T12:14:31.354Z,101294.42
2017-08-10T12:16:57.748Z,101293.08
2017-08-10T12:19:24.143Z,101284.16
2017-08-10T12:21:50.524Z,101280.13
2017-08-10T12:24:16.902Z,101277.02
2017-08-10T12:26:43.280Z,101274.46
2017-08-10T12:29:09.659Z,101281.33
2017-08-10T12:31:36.041Z,101299.08
2017-08-10T12:34:02.455Z,101307.19
2017-08-10T12:36:28.826Z,101306.36
2017-08-10T12:38:55.218Z,101296.28
2017-08-10T12:41:21.584Z,101285.08
2017-08-10T12:43:47.961Z,101284.52
2017-08-10T12:46:14.332Z,101279.98
2017-08-10T12:48:40.696Z,101277.39
2017-08-10T12:51:07.088Z,101283.98
2017-08-10T12:53:33.456Z,101285.75
2017-08-10T12:55:59.835Z,101299.81
2017-08-10T12:58:26.222Z,101309.98
2017-08-10T13:00:52.580Z,101308.55
2017-08-10T13:03:18.964Z,101317.07
2017-08-10T13:05:45.382Z,101303.54
2017-08-10T13:08:11.749Z,101293.73
2017-08-10T13:10:38.130Z,101286.78
2017-08-10T13:13:04.474Z,101280.08
2017-08-10T13:15:30.838Z,101278.13
2017-08-10T13:17:57.190Z,101276.48
2017-08-10T13:20:23.593Z,101276.72
2017-08-10T13:22:49.976Z,101285.20
2017-08-10T13:25:16.369Z,101298.83
2017-08-10T13:27:42.748Z,101300.73
2017-08-10T13:30:09.207Z,101295.73
2017-08-10T13:32:35.601Z,101289.77
2017-08-10T13:35:01.962Z,101287.59
2017-08-10T13:37:28.369Z,101282.23
2017-08-10T13:39:54.701Z,101271.56
2017-08-10T13:42:21.104Z,101264.86
2017-08-10T13:44:47.491Z,101270.95
2017-08-10T13:47:13.860Z,101274.30
2017-08-10T13:49:40.267Z,101274.36
2017-08-10T13:52:06.671Z,101266.32
2017-08-10T13:54:33.042Z,101267.28
2017-08-10T13:56:59.413Z,101260.48
2017-08-10T13:59:25.799Z,101245.18
2017-08-10T14:01:52.187Z,101246.64
2017-08-10T14:04:18.581Z,101238.52
2017-08-10T14:06:44.993Z,101243.08
2017-08-10T14:09:11.375Z,101236.64
2017-08-10T14:11:37.764Z,101231.88
2017-08-10T14:14:04.122Z,101232.97
2017-08-10T14:16:30.524Z,101240.65
2017-08-10T14:18:56.923Z,101240.55
2017-08-10T14:21:23.318Z,101243.45
2017-08-10T14:23:49.681Z,101242.91
2017-08-10T14:26:16.058Z,101242.04
2017-08-10T14:28:42.458Z,101241.39
2017-08-10T14:31:08.807Z,101239.68
2017-08-10T14:33:35.190Z,101240.84
2017-08-10T14:36:01.576Z,101244.27
2017-08-10T14:38:27.948Z,101242.93
2017-08-10T14:40:54.381Z,101248.83
2017-08-10T14:43:20.777Z,101248.78
2017-08-10T14:45:47.138Z,101239.66
2017-08-10T14:48:13.505Z,101230.63
2017-08-10T14:50:39.911Z,101228.98
2017-08-10T14:53:06.254Z,101228.56
2017-08-10T14:55:32.683Z,101221.55
2017-08-10T14:57:59.081Z,101234.48
2017-08-10T15:00:25.488Z,101239.28
2017-08-10T15:02:51.867Z,101238.24
2017-08-10T15:05:18.292Z,101232.95
2017-08-10T15:07:44.666Z,101228.21
2017-08-10T15:10:11.028Z,101226.05
2017-08-10T15:12:37.405Z,101223.20
2017-08-10T15:15:03.793Z,101230.28
2017-08-10T15:17:30.131Z,101234.66
2017-08-10T15:19:56.469Z,101235.34
2017-08-10T15:22:22.896Z,101238.62
2017-08-10T15:24:49.272Z,101238.80
2017-08-10T15:27:15.802Z,101249.78
2017-08-10T15:29:42.163Z,101254.70
2017-08-10T15:32:08.526Z,101260.25
2017-08-10T15:34:34.887Z,101252.86
2017-08-10T15:37:01.235Z,101248.94
2017-08-10T15:39:27.636Z,101243.58
2017-08-10T15:41:54.052Z,101241.53
2017-08-10T15:44:20.429Z,101236.40
2017-08-10T15:46:46.825Z,101236.87
2017-08-10T15:49:13.201Z,101233.94
2017-08-10T15:51:39.603Z,101236.27
2017-08-10T15:54:05.981Z,101240.16
2017-08-10T15:56:32.338Z,101242.06
2017-08-10T15:58:58.698Z,101236.22
2017-08-10T16:01:25.072Z,101241.98
2017-08-10T16:03:51.433Z,101234.27
2017-08-10T16:06:17.782Z,101228.48
2017-08-10T16:08:44.164Z,101220.55
2017-08-10T16:11:10.537Z,101225.30
2017-08-10T16:13:36.919Z,101216.86
2017-08-10T16:16:03.287Z,101218.98
2017-08-10T16:18:29.634Z,101216.53
2017-08-10T16:20:56.023Z,101219.50
2017-08-10T16:23:22.374Z,101219.20
2017-08-10T16:25:48.783Z,101222.09
2017-08-10T16:28:15.183Z,101216.73
2017-08-10T16:30:41.544Z,101209.91
2017-08-10T16:33:07.939Z,101213.80
2017-08-10T16:35:34.287Z,101210.13
2017-08-10T16:38:00.669Z,101216.91
2017-08-10T16:40:27.032Z,101213.75
2017-08-10T16:42:53.423Z,101210.03
2017-08-10T16:45:19.774Z,101219.80
2017-08-10T16:47:46.152Z,101220.31
2017-08-10T16:50:12.507Z,101218.30
2017-08-10T16:52:38.887Z,101220.84
2017-08-10T16:55:05.237Z,101214.53
2017-08-10T16:57:31.597Z,101204.85
2017-08-10T16:59:57.982Z,101205.41
2017-08-10T17:02:24.394Z,101204.30
2017-08-10T17:04:50.774Z,101210.69
2017-08-10T17:07:17.134Z,101213.23
2017-08-10T17:09:43.524Z,101216.34
2017-08-10T17:12:09.904Z,101217.52
2017-08-10T17:14:36.274Z,101219.41
2017-08-10T17:17:02.652Z,101217.69
2017-08-10T17:19:29.060Z,101225.54
2017-08-10T17:21:55.420Z,101226.33
2017-08-10T17:24:21.841Z,101223.77
2017-08-10T17:26:48.220Z,101224.81
2017-08-10T17:29:14.592Z,101224.03
2017-08-10T17:31:40.965Z,101219.88
2017-08-10T17:34:07.332Z,101221.48
2017-08-10T17:36:33.712Z,101222.61
2017-08-10T17:39:00.113Z,101231.20
2017-08-10T17:41:26.470Z,101234.97
2017-08-10T17:43:52.840Z,101228.48
2017-08-10T17:46:19.209Z,101224.50
2017-08-10T17:48:45.560Z,101211.45
2017-08-10T17:51:11.944Z,101203.06
2017-08-10T17:53:38.307Z,101199.10
2017-08-10T17:56:04.667Z,101203.66
2017-08-10T17:58:31.049Z,101203.33
2017-08-10T18:01:00.142Z,101209.20
2017-08-10T18:03:23.881Z,101209.27
2017-08-10T18:05:50.276Z,101211.83
2017-08-10T18:08:16.616Z,101207.98
2017-08-10T18:10:43.025Z,101206.09
2017-08-10T18:13:09.469Z,101199.53
2017-08-10T18:15:35.837Z,101187.95
2017-08-10T18:18:02.205Z,101197.89
2017-08-10T18:20:28.583Z,101205.70
2017-08-10T18:22:54.941Z,101202.63
2017-08-10T18:25:21.375Z,101191.61
2017-08-10T18:27:47.791Z,101198.45
2017-08-10T18:30:14.170Z,101202.78
2017-08-10T18:32:40.593Z,101202.04
2017-08-10T18:35:06.967Z,101204.50
2017-08-10T18:37:33.356Z,101205.10
2017-08-10T18:39:59.764Z,101206.02
2017-08-10T18:42:26.187Z,101217.74
2017-08-10T18:44:52.548Z,101218.53
2017-08-10T18:47:18.917Z,101218.11
2017-08-10T18:49:45.276Z,101213.06
2017-08-10T18:52:11.637Z,101210.02
2017-08-10T18:54:38.017Z,101213.95
2017-08-10T18:57:04.372Z,101211.42
2017-08-10T18:59:30.743Z,101205.34
2017-08-10T19:01:57.137Z,101199.39
2017-08-10T19:04:23.578Z,101207.11
2017-08-10T19:06:49.948Z,101192.52
2017-08-10T19:09:16.582Z,101186.13
2017-08-10T19:11:42.962Z,101182.41
2017-08-10T19:14:09.368Z,101200.71
2017-08-10T19:16:35.740Z,101206.08
2017-08-10T19:19:02.081Z,101207.41
2017-08-10T19:21:28.474Z,101208.11
2017-08-10T19:23:55.171Z,101208.33
2017-08-10T19:26:21.545Z,101202.62
2017-08-10T19:28:47.929Z,101201.98
2017-08-10T19:31:14.322Z,101191.88
2017-08-10T19:33:40.708Z,101194.58
2017-08-10T19:36:07.155Z,101201.91
2017-08-10T19:38:33.529Z,101198.11
2017-08-10T19:40:59.879Z,101193.13
2017-08-10T19:43:26.267Z,101193.25
2017-08-10T19:45:52.900Z,101192.23
2017-08-10T19:48:19.489Z,101189.48
2017-08-10T19:50:45.878Z,101191.74
2017-08-10T19:53:12.312Z,101198.56
2017-08-10T19:55:38.685Z,101194.05
2017-08-10T19:58:05.051Z,101186.80
2017-08-10T20:00:31.493Z,101184.50
2017-08-10T20:02:57.870Z,101179.84
2017-08-10T20:05:24.280Z,101183.11
2017-08-10T20:07:50.659Z,101185.82
2017-08-10T20:10:17.072Z,101174.48
2017-08-10T20:12:43.480Z,101175.11
2017-08-10T20:15:09.827Z,101169.37
2017-08-10T20:17:36.193Z,101192.50
2017-08-10T20:20:02.631Z,101201.52
2017-08-10T20:22:29.028Z,101213.31
2017-08-10T20:24:55.436Z,101212.65
2017-08-10T20:27:21.846Z,101227.36
2017-08-10T20:29:48.203Z,101235.58
2017-08-10T20:32:14.572Z,101231.45
2017-08-10T20:34:40.950Z,101224.41
2017-08-10T20:37:07.354Z,101212.47
2017-08-10T20:39:33.711Z,101216.00
2017-08-10T20:42:00.098Z,101216.48
2017-08-10T20:44:26.462Z,101215.67
2017-08-10T20:46:52.837Z,101222.67
2017-08-10T20:49:19.249Z,101221.35
2017-08-10T20:51:45.587Z,101228.11
2017-08-10T20:54:12.361Z,101233.94
2017-08-10T20:56:38.736Z,101215.36
2017-08-10T20:59:05.118Z,101212.45
2017-08-10T21:01:31.486Z,101211.08
2017-08-10T21:03:57.864Z,101212.81
2017-08-10T21:06:24.259Z,101215.31
2017-08-10T21:08:50.622Z,101218.77
2017-08-10T21:11:16.994Z,101222.38
2017-08-10T21:13:43.334Z,101215.12
2017-08-10T21:16:09.736Z,101209.45
2017-08-10T21:18:36.117Z,101206.97
2017-08-10T21:21:02.508Z,101212.23
2017-08-10T21:23:28.882Z,101209.95
2017-08-10T21:25:55.251Z,101210.92
2017-08-10T21:28:21.595Z,101211.35
2017-08-10T21:30:47.974Z,101207.38
2017-08-10T21:33:14.367Z,101201.74
2017-08-10T21:35:40.740Z,101206.19
2017-08-10T21:38:07.099Z,101207.58
2017-08-10T21:40:33.463Z,101207.13
2017-08-10T21:42:59.872Z,101205.28
2017-08-10T21:45:26.240Z,101200.74
2017-08-10T21:47:52.604Z,101198.66
2017-08-10T21:50:18.986Z,101209.36
2017-08-10T21:52:45.339Z,101205.17
2017-08-10T21:55:11.684Z,101202.69
2017-08-10T21:57:38.057Z,101201.00
2017-08-10T22:00:04.411Z,101199.95
2017-08-10T22:02:30.739Z,101191.83
2017-08-10T22:04:57.116Z,101187.25
2017-08-10T22:07:23.449Z,101187.08
2017-08-10T22:09:49.847Z,101183.98
2017-08-10T22:12:16.192Z,101182.48
2017-08-10T22:14:42.865Z,101181.88
2017-08-10T22:17:09.254Z,101184.20
2017-08-10T22:19:35.630Z,101182.67
2017-08-10T22:22:01.992Z,101191.43
2017-08-10T22:24:28.404Z,101192.08
2017-08-10T22:26:54.792Z,101192.58
2017-08-10T22:29:21.179Z,101200.75
2017-08-10T22:31:47.559Z,101198.41
2017-08-10T22:34:13.941Z,101200.70
2017-08-10T22:36:40.303Z,101202.03
2017-08-10T22:39:06.725Z,101205.42
2017-08-10T22:41:33.137Z,101200.59
2017-08-10T22:43:59.535Z,101193.70
2017-08-10T22:46:25.915Z,101201.47
2017-08-10T22:48:52.285Z,101195.10
2017-08-10T22:51:18.652Z,101198.23
2017-08-10T22:53:45.042Z,101192.09
2017-08-10T22:56:11.443Z,101179.26
2017-08-10T22:58:37.817Z,101174.70
2017-08-10T23:01:04.241Z,101172.41
2017-08-10T23:03:30.667Z,101166.60
2017-08-10T23:05:57.040Z,101161.45
2017-08-10T23:08:23.487Z,101158.45
2017-08-10T23:10:49.883Z,101159.06
2017-08-10T23:13:16.278Z,101163.58
2017-08-10T23:15:42.631Z,101166.08
2017-08-10T23:18:09.051Z,101167.20
2017-08-10T23:20:35.439Z,101165.98
2017-08-10T23:23:01.804Z,101165.70
2017-08-10T23:25:28.175Z,101164.14
2017-08-10T23:27:54.571Z,101164.12
2017-08-10T23:30:21.035Z,101157.82
2017-08-10T23:32:47.465Z,101151.03
2017-08-10T23:35:13.864Z,101151.78
2017-08-10T23:37:40.230Z,101149.86
2017-08-10T23:40:06.616Z,101138.44
2017-08-10T23:42:33.020Z,101134.58
2017-08-10T23:44:59.375Z,101146.70
2017-08-10T23:47:25.768Z,101147.25
2017-08-10T23:49:52.232Z,101147.16
2017-08-10T23:52:18.598Z,101144.07
2017-08-10T23:54:44.980Z,101138.91
2017-08-10T23:57:11.359Z,101130.72
2017-08-10T23:59:37.715Z,101121.95
